Time;durP1;ratioP1;P1;durP2;ratioP2;P2;SDS_P1;SDS_P2;PMS_P1;PMS_P2;Temp;Humidity;BMP_temperature;BMP_pressure;BME280_temperature;BME280_humidity;BME280_pressure;Samples;Min_cycle;Max_cycle;Signal;HPM_P1;HPM_P2
2021/11/05 00:00:41;;;;;;;14.98;8.95;;;;;;;7.10;93.27;101424.47;4994676;28;20145;-51
2021/11/05 00:03:10;;;;;;;13.02;8.27;;;;;;;7.15;94.09;101432.72;4993959;28;20473;-50
2021/11/05 00:05:38;;;;;;;12.02;7.40;;;;;;;7.23;93.49;101429.69;4994231;28;20042;-49
2021/11/05 00:08:10;;;;;;;12.57;6.55;;;;;;;7.27;93.34;101430.06;4993511;28;20039;-52
2021/11/05 00:10:40;;;;;;;8.52;4.65;;;;;;;7.29;92.60;101440.66;4994840;28;20401;-51
2021/11/05 00:13:09;;;;;;;8.73;4.47;;;;;;;7.24;91.71;101442.19;4993801;28;20133;-51
2021/11/05 00:15:38;;;;;;;9.30;4.68;;;;;;;7.19;92.35;101444.78;4994290;28;20042;-50
2021/11/05 00:18:06;;;;;;;10.38;5.60;;;;;;;7.16;91.81;101442.50;4993984;28;20065;-49
2021/11/05 00:20:35;;;;;;;11.52;5.28;;;;;;;7.12;92.29;101444.03;4993659;28;20113;-50
2021/11/05 00:23:03;;;;;;;9.05;5.68;;;;;;;7.12;92.25;101445.91;4993589;28;20050;-52
2021/11/05 00:25:31;;;;;;;10.52;5.07;;;;;;;7.11;91.80;101452.38;4992787;28;20125;-52
2021/11/05 00:28:02;;;;;;;9.68;5.20;;;;;;;7.08;92.39;101450.97;4993525;28;20077;-53
2021/11/05 00:30:30;;;;;;;14.18;5.72;;;;;;;7.08;92.42;101461.81;4994121;28;20042;-52
2021/11/05 00:32:58;;;;;;;15.00;5.30;;;;;;;7.10;92.19;101467.81;4993021;28;20077;-52
2021/11/05 00:35:26;;;;;;;12.00;5.10;;;;;;;7.08;91.97;101464.50;4994007;28;20093;-49
2021/11/05 00:37:54;;;;;;;12.10;5.50;;;;;;;7.07;92.05;101462.88;4993836;28;20050;-51
2021/11/05 00:40:25;;;;;;;9.15;5.00;;;;;;;7.04;91.79;101469.53;4993701;28;20034;-49
2021/11/05 00:42:53;;;;;;;11.13;5.68;;;;;;;7.02;91.88;101468.13;4993886;28;20042;-54
2021/11/05 00:45:21;;;;;;;11.52;5.22;;;;;;;7.01;92.63;101463.78;4993834;28;20046;-52
2021/11/05 00:47:49;;;;;;;10.07;5.47;;;;;;;7.01;92.28;101466.47;4992962;28;20051;-54
2021/11/05 00:50:17;;;;;;;8.40;4.70;;;;;;;7.04;92.79;101471.44;4992850;28;20063;-52
2021/11/05 00:52:45;;;;;;;9.35;4.68;;;;;;;7.03;91.95;101467.09;4993433;28;20050;-53
2021/11/05 00:55:14;;;;;;;9.48;4.95;;;;;;;7.03;91.99;101472.50;4993738;28;20164;-52
2021/11/05 00:57:42;;;;;;;11.82;4.97;;;;;;;7.02;91.83;101476.25;4993028;28;20053;-52
2021/11/05 01:00:13;;;;;;;8.57;4.40;;;;;;;7.01;91.95;101474.59;4993331;28;20054;-53
2021/11/05 01:02:41;;;;;;;11.25;5.70;;;;;;;7.02;92.87;101481.66;4993051;28;20049;-52
2021/11/05 01:05:11;;;;;;;13.05;5.90;;;;;;;7.03;92.85;101480.63;4993398;28;20844;-52
2021/11/05 01:07:40;;;;;;;10.80;4.53;;;;;;;7.04;91.75;101490.41;4992705;28;20069;-52
2021/11/05 01:10:09;;;;;;;8.45;4.90;;;;;;;7.00;92.11;101492.75;4993305;28;20043;-53
2021/11/05 01:12:37;;;;;;;9.80;5.20;;;;;;;6.98;91.90;101494.03;4992887;28;20039;-54
2021/11/05 01:15:07;;;;;;;9.25;4.97;;;;;;;6.95;92.29;101498.03;4993321;28;20034;-53
2021/11/05 01:17:35;;;;;;;8.75;4.78;;;;;;;6.94;92.41;101507.19;4992781;28;20041;-53
2021/11/05 01:20:06;;;;;;;10.60;4.78;;;;;;;6.94;92.33;101501.78;4992701;28;20046;-52
2021/11/05 01:22:34;;;;;;;8.85;5.15;;;;;;;6.99;92.11;101506.50;4993152;28;20061;-52
2021/11/05 01:25:02;;;;;;;9.82;5.15;;;;;;;7.02;91.68;101511.47;4993022;28;20034;-52
2021/11/05 01:27:30;;;;;;;9.32;5.13;;;;;;;7.02;92.26;101514.19;4992753;28;20081;-53
2021/11/05 01:29:59;;;;;;;9.98;4.82;;;;;;;7.03;91.06;101524.81;4992748;28;20050;-54
2021/11/05 01:32:28;;;;;;;9.13;4.72;;;;;;;7.00;91.77;101521.72;4993031;28;20042;-52
2021/11/05 01:34:56;;;;;;;8.80;4.90;;;;;;;6.98;91.34;101521.13;4992759;28;20042;-54
2021/11/05 01:37:24;;;;;;;7.85;4.45;;;;;;;6.97;91.38;101527.59;4992904;28;20042;-53
2021/11/05 01:39:52;;;;;;;8.10;4.32;;;;;;;6.94;91.25;101528.88;4993091;28;20050;-53
2021/11/05 01:42:20;;;;;;;9.07;4.47;;;;;;;6.93;91.86;101531.81;4992664;28;20046;-53
2021/11/05 01:44:48;;;;;;;11.32;4.43;;;;;;;6.93;92.13;101543.47;4993042;28;20137;-54
2021/11/05 01:47:19;;;;;;;7.97;3.90;;;;;;;6.95;92.01;101535.97;4992329;28;20405;-52
2021/11/05 01:49:48;;;;;;;10.65;4.50;;;;;;;6.96;91.36;101536.78;4992462;28;20061;-52
2021/11/05 01:52:16;;;;;;;8.52;4.40;;;;;;;6.95;91.56;101545.94;4992427;28;20457;-52
2021/11/05 01:54:45;;;;;;;9.32;4.43;;;;;;;6.95;92.22;101540.53;4992941;28;20413;-53
2021/11/05 01:57:13;;;;;;;6.45;3.97;;;;;;;6.95;91.55;101545.94;4991988;28;20042;-53
2021/11/05 01:59:41;;;;;;;8.10;4.32;;;;;;;6.93;91.19;101548.06;4992507;28;20058;-53
2021/11/05 02:02:09;;;;;;;9.52;4.40;;;;;;;6.91;91.47;101550.19;4992216;28;20066;-53
2021/11/05 02:04:37;;;;;;;9.55;4.30;;;;;;;6.92;91.66;101549.94;4992521;28;20877;-52
2021/11/05 02:07:05;;;;;;;7.93;4.22;;;;;;;6.93;92.16;101548.91;4992290;28;20038;-52
2021/11/05 02:09:34;;;;;;;8.07;4.15;;;;;;;6.95;91.20;101556.78;4991211;28;20493;-52
2021/11/05 02:12:02;;;;;;;6.57;4.05;;;;;;;6.92;91.79;101562.66;5007334;28;20046;-49
2021/11/05 02:14:31;;;;;;;8.02;3.90;;;;;;;6.90;91.39;101564.75;4992117;28;20046;-50
2021/11/05 02:17:04;;;;;;;7.05;4.13;;;;;;;6.91;91.72;101566.44;4991624;28;20066;-49
2021/11/05 02:19:33;;;;;;;6.57;3.55;;;;;;;6.92;92.13;101568.06;4990709;28;20113;-51
2021/11/05 02:22:03;;;;;;;5.72;3.88;;;;;;;6.91;91.54;101567.25;4992324;28;20081;-49
2021/11/05 02:24:31;;;;;;;8.75;4.68;;;;;;;6.94;92.05;101572.22;4992321;28;20042;-49
2021/11/05 02:27:01;;;;;;;8.18;4.38;;;;;;;6.97;91.84;101573.63;4992094;28;20109;-50
2021/11/05 02:29:31;;;;;;;8.23;3.97;;;;;;;6.97;91.38;101570.94;4991662;28;20137;-49
2021/11/05 02:32:01;;;;;;;6.88;3.92;;;;;;;6.95;91.38;101583.88;4991874;28;20042;-49
2021/11/05 02:34:29;;;;;;;6.05;3.92;;;;;;;6.92;91.86;101589.75;4992196;28;20497;-49
2021/11/05 02:36:58;;;;;;;9.65;4.00;;;;;;;6.90;91.38;101583.72;4992154;28;20042;-49
2021/11/05 02:39:26;;;;;;;6.85;4.00;;;;;;;6.88;91.64;101583.97;4992565;28;20050;-52
2021/11/05 02:41:55;;;;;;;7.05;3.67;;;;;;;6.86;91.23;101587.94;4991948;28;20039;-49
2021/11/05 02:44:23;;;;;;;5.85;3.60;;;;;;;6.86;92.18;101590.66;4992244;28;20047;-49
2021/11/05 02:46:52;;;;;;;11.38;3.60;;;;;;;6.83;91.92;101597.31;4991991;28;20038;-49
2021/11/05 02:49:20;;;;;;;10.27;4.00;;;;;;;6.81;91.52;101600.28;4991778;28;20069;-48
2021/11/05 02:51:50;;;;;;;6.65;3.50;;;;;;;6.77;91.72;101600.94;4991091;28;20133;-50
2021/11/05 02:54:18;;;;;;;8.93;3.40;;;;;;;6.76;92.65;101607.44;4992606;28;20042;-49
2021/11/05 02:56:46;;;;;;;6.05;3.30;;;;;;;6.76;92.04;101602.84;4989874;28;20046;-49
2021/11/05 02:59:15;;;;;;;8.07;3.30;;;;;;;6.75;92.63;101609.28;4995168;28;20065;-50
2021/11/05 03:01:43;;;;;;;7.10;3.30;;;;;;;6.77;92.60;101611.78;4995028;28;20042;-53
2021/11/05 03:04:11;;;;;;;7.93;3.42;;;;;;;6.75;92.33;101617.41;4995943;28;20046;-49
2021/11/05 03:06:41;;;;;;;8.35;3.63;;;;;;;6.75;92.69;101622.81;5010752;28;20053;-50
2021/11/05 03:09:15;;;;;;;6.05;3.10;;;;;;;6.76;92.39;101620.97;4995272;28;20054;-50
2021/11/05 03:11:45;;;;;;;8.10;3.10;;;;;;;6.74;92.83;101626.59;4995055;28;20065;-49
2021/11/05 03:14:14;;;;;;;4.97;3.00;;;;;;;6.73;93.09;101630.34;4995476;28;20065;-50
2021/11/05 03:16:42;;;;;;;8.48;3.20;;;;;;;6.72;93.11;101634.13;4995255;28;20401;-49
2021/11/05 03:19:10;;;;;;;6.32;2.70;;;;;;;6.74;93.41;101632.00;4995099;28;20050;-49
2021/11/05 03:21:38;;;;;;;9.95;3.08;;;;;;;6.77;93.35;101636.97;4994680;28;20788;-49
2021/11/05 03:24:07;;;;;;;6.30;3.20;;;;;;;6.79;93.14;101643.00;4995585;28;20050;-51
2021/11/05 03:26:35;;;;;;;11.85;2.92;;;;;;;6.82;93.34;101650.69;4994988;28;20509;-50
2021/11/05 03:29:04;;;;;;;6.35;2.95;;;;;;;6.82;92.56;101645.25;4994514;28;20421;-52
2021/11/05 03:31:33;;;;;;;5.38;2.70;;;;;;;6.80;93.11;101652.78;4994487;28;20440;-53
2021/11/05 03:34:02;;;;;;;14.75;3.50;;;;;;;6.81;92.94;101651.75;4993176;28;20046;-53
2021/11/05 03:36:30;;;;;;;5.68;3.05;;;;;;;6.81;92.58;101657.16;4995158;28;20039;-52
2021/11/05 03:38:59;;;;;;;7.18;2.92;;;;;;;6.80;92.46;101660.91;4994986;28;20042;-53
2021/11/05 03:41:27;;;;;;;8.18;2.88;;;;;;;6.80;92.85;101668.19;4993579;28;20054;-52
2021/11/05 03:43:55;;;;;;;7.38;3.40;;;;;;;6.81;92.94;101670.69;4994545;28;20054;-52
2021/11/05 03:46:24;;;;;;;7.72;3.03;;;;;;;6.84;92.93;101672.13;4994925;28;20045;-53
2021/11/05 03:48:52;;;;;;;10.07;3.08;;;;;;;6.85;92.27;101673.78;4994707;28;20070;-53
2021/11/05 03:51:20;;;;;;;7.05;2.80;;;;;;;6.83;92.98;101674.03;4993538;28;20049;-53
2021/11/05 03:53:49;;;;;;;6.22;2.70;;;;;;;6.85;93.10;101681.09;4994827;28;20112;-54
2021/11/05 03:56:17;;;;;;;5.32;2.75;;;;;;;6.85;93.05;101672.97;4994538;28;20100;-51
2021/11/05 03:58:45;;;;;;;5.60;2.78;;;;;;;6.87;92.96;101674.41;4994252;28;20062;-54
2021/11/05 04:01:13;;;;;;;5.60;2.60;;;;;;;6.89;92.68;101691.25;4994249;28;20046;-52
2021/11/05 04:03:41;;;;;;;7.35;3.03;;;;;;;6.88;92.21;101691.47;4993664;28;20081;-50
2021/11/05 04:06:10;;;;;;;6.30;2.75;;;;;;;6.85;92.41;101703.56;4993358;28;20038;-52
2021/11/05 04:08:38;;;;;;;5.80;2.63;;;;;;;6.87;92.81;101708.78;4994408;28;20050;-53
2021/11/05 04:11:10;;;;;;;7.03;2.80;;;;;;;6.90;92.66;101705.63;4993433;28;20034;-52
2021/11/05 04:13:39;;;;;;;6.05;3.05;;;;;;;6.90;92.71;101717.28;4994164;28;20073;-53
2021/11/05 04:16:07;;;;;;;6.10;2.83;;;;;;;6.89;92.36;101725.66;4994476;28;20046;-52
2021/11/05 04:18:36;;;;;;;5.03;2.88;;;;;;;6.89;92.19;101714.81;4994517;28;20157;-49
2021/11/05 04:21:05;;;;;;;6.20;2.80;;;;;;;6.89;92.40;101714.81;4993538;28;20122;-53
2021/11/05 04:23:34;;;;;;;6.03;2.70;;;;;;;6.90;92.53;101732.72;4993606;28;20057;-52
2021/11/05 04:26:03;;;;;;;6.60;3.10;;;;;;;6.91;92.10;101734.41;4993669;28;20041;-54
2021/11/05 04:28:32;;;;;;;4.80;2.50;;;;;;;6.90;92.06;101738.13;4993584;28;20038;-53
2021/11/05 04:31:01;;;;;;;6.00;2.67;;;;;;;6.87;92.29;101738.59;4994121;28;20118;-53
2021/11/05 04:33:31;;;;;;;5.75;2.50;;;;;;;6.83;92.61;101738.19;4992557;28;20057;-53
2021/11/05 04:36:00;;;;;;;5.53;2.70;;;;;;;6.80;92.25;101747.56;4993800;28;20042;-52
2021/11/05 04:38:29;;;;;;;5.25;2.65;;;;;;;6.78;92.75;101752.41;4994064;28;20050;-52
2021/11/05 04:40:57;;;;;;;8.05;3.03;;;;;;;6.77;92.99;101752.63;4993017;28;20049;-50
2021/11/05 04:43:26;;;;;;;5.85;2.72;;;;;;;6.76;92.74;101756.41;4993346;28;20433;-53
2021/11/05 04:45:54;;;;;;;4.82;2.97;;;;;;;6.73;93.48;101763.03;4993837;28;20065;-53
2021/11/05 04:48:22;;;;;;;5.90;2.88;;;;;;;6.70;92.91;101766.19;4993832;28;20409;-53
2021/11/05 04:50:50;;;;;;;7.03;2.90;;;;;;;6.70;93.48;101763.50;4993060;28;20460;-51
2021/11/05 04:53:18;;;;;;;4.30;2.28;;;;;;;6.70;93.82;101771.63;4993335;28;20417;-53
2021/11/05 04:55:46;;;;;;;7.05;2.90;;;;;;;6.67;93.13;101768.53;4993098;28;20081;-52
2021/11/05 04:58:14;;;;;;;6.22;2.72;;;;;;;6.70;94.17;101774.31;4993780;28;20111;-54
2021/11/05 05:00:42;;;;;;;4.22;2.55;;;;;;;6.75;93.80;101784.50;4993369;28;20524;-52
2021/11/05 05:03:10;;;;;;;7.82;2.70;;;;;;;6.78;93.94;101784.91;4993150;28;20453;-53
2021/11/05 05:05:39;;;;;;;5.20;2.83;;;;;;;6.76;93.82;101781.59;4992873;28;20485;-53
2021/11/05 05:08:07;;;;;;;5.93;2.97;;;;;;;6.75;93.63;101789.91;4993042;28;20520;-53
2021/11/05 05:10:35;;;;;;;5.82;2.90;;;;;;;6.73;93.36;101794.72;4992974;28;20046;-52
2021/11/05 05:13:04;;;;;;;5.60;2.70;;;;;;;6.72;93.34;101793.06;4993328;28;20049;-52
2021/11/05 05:15:32;;;;;;;7.20;3.20;;;;;;;6.69;93.20;101799.75;4992921;28;20587;-52
2021/11/05 05:18:00;;;;;;;7.85;2.95;;;;;;;6.68;94.09;101800.78;4992774;28;20120;-52
2021/11/05 05:20:29;;;;;;;7.13;2.97;;;;;;;6.71;93.57;101819.34;4992860;28;20055;-51
2021/11/05 05:22:57;;;;;;;6.93;2.92;;;;;;;6.71;93.36;101816.63;4993011;28;20046;-52
2021/11/05 05:25:25;;;;;;;7.30;2.90;;;;;;;6.73;94.12;101809.09;4992005;28;20531;-53
2021/11/05 05:27:54;;;;;;;5.88;2.90;;;;;;;6.75;94.13;101817.84;4993349;28;20034;-55
2021/11/05 05:30:22;;;;;;;6.03;2.67;;;;;;;6.77;93.94;101825.75;4992638;28;20052;-53
2021/11/05 05:32:50;;;;;;;6.40;2.60;;;;;;;6.74;93.46;101821.59;4993065;28;20174;-52
2021/11/05 05:35:19;;;;;;;5.32;2.40;;;;;;;6.79;94.45;101821.78;4992612;28;20485;-53
2021/11/05 05:37:48;;;;;;;4.38;2.70;;;;;;;6.82;93.66;101828.63;4992695;28;20049;-52
2021/11/05 05:40:16;;;;;;;9.27;2.58;;;;;;;6.82;93.22;101829.47;4992551;28;20045;-53
2021/11/05 05:42:44;;;;;;;7.13;2.95;;;;;;;6.82;93.36;101829.47;4992753;28;20042;-51
2021/11/05 05:45:13;;;;;;;5.75;2.60;;;;;;;6.81;93.13;101838.66;4992445;28;20066;-53
2021/11/05 05:47:41;;;;;;;5.25;2.75;;;;;;;6.76;92.93;101841.19;4992937;28;20038;-52
2021/11/05 05:50:15;;;;;;;6.68;2.67;;;;;;;6.70;93.83;101842.03;4992189;28;20129;-52
2021/11/05 05:52:44;;;;;;;7.72;2.53;;;;;;;6.65;93.66;101843.75;4992042;28;20077;-54
2021/11/05 05:55:14;;;;;;;5.35;2.38;;;;;;;6.63;93.72;101851.25;4991954;28;20378;-53
2021/11/05 05:57:42;;;;;;;8.55;2.63;;;;;;;6.60;94.26;101852.50;4992534;28;20046;-53
2021/11/05 06:00:14;;;;;;;5.28;2.25;;;;;;;6.61;94.60;101859.56;4992597;28;20452;-52
2021/11/05 06:02:42;;;;;;;4.82;2.25;;;;;;;6.61;94.70;101855.00;4991971;28;20046;-52
2021/11/05 06:05:10;;;;;;;5.68;2.78;;;;;;;6.60;94.03;101858.75;4993853;28;20453;-56
2021/11/05 06:07:39;;;;;;;6.70;2.88;;;;;;;6.61;94.11;101870.41;4991217;28;20038;-51
2021/11/05 06:10:07;;;;;;;6.30;2.60;;;;;;;6.60;94.03;101864.16;4992099;28;20050;-53
2021/11/05 06:12:35;;;;;;;4.70;2.50;;;;;;;6.61;94.44;101870.41;4992802;28;20417;-52
2021/11/05 06:15:05;;;;;;;7.88;2.70;;;;;;;6.59;93.93;101872.50;4992348;28;20076;-52
2021/11/05 06:17:33;;;;;;;6.50;2.80;;;;;;;6.58;94.27;101870.84;4992283;28;20070;-53
2021/11/05 06:20:04;;;;;;;5.28;2.60;;;;;;;6.57;93.92;101874.63;4992423;28;20446;-52
2021/11/05 06:22:32;;;;;;;7.60;3.03;;;;;;;6.57;94.32;101880.03;4990890;28;20461;-52
2021/11/05 06:25:00;;;;;;;7.28;2.75;;;;;;;6.57;93.90;101891.69;4991750;28;20461;-53
2021/11/05 06:27:28;;;;;;;3.55;2.10;;;;;;;6.57;94.40;101893.56;4991908;28;20050;-54
2021/11/05 06:29:57;;;;;;;5.82;2.38;;;;;;;6.58;94.47;101897.91;4993271;28;20034;-51
2021/11/05 06:32:25;;;;;;;7.60;2.95;;;;;;;6.59;94.20;101896.88;4995949;28;20156;-53
2021/11/05 06:34:53;;;;;;;7.22;2.50;;;;;;;6.59;94.11;101905.00;4996409;28;20256;-52
2021/11/05 06:37:21;;;;;;;7.38;2.70;;;;;;;6.59;94.46;101899.56;4995163;28;20495;-53
2021/11/05 06:39:49;;;;;;;6.03;2.78;;;;;;;6.59;94.05;101915.81;4995768;28;20441;-53
2021/11/05 06:42:22;;;;;;;3.97;2.50;;;;;;;6.57;93.98;101916.06;4995203;28;20093;-53
2021/11/05 06:44:51;;;;;;;6.68;2.72;;;;;;;6.56;94.46;101921.66;4995751;28;20045;-51
2021/11/05 06:47:20;;;;;;;7.47;2.67;;;;;;;6.57;94.20;101924.19;4990477;28;20042;-52
2021/11/05 06:49:48;;;;;;;6.25;2.80;;;;;;;6.59;94.32;101926.66;4991954;28;20433;-53
2021/11/05 06:52:17;;;;;;;8.35;2.88;;;;;;;6.60;93.90;101936.47;4994606;28;20046;-53
2021/11/05 06:54:45;;;;;;;7.13;2.70;;;;;;;6.60;93.76;101939.16;4995299;28;20054;-54
2021/11/05 06:57:31;;;;;;;7.58;2.77;;;;;;;6.61;94.13;101951.66;4595292;28;10001937;-53
2021/11/05 06:59:59;;;;;;;6.70;2.95;;;;;;;6.62;94.18;101942.50;4990213;28;20525;-53
2021/11/05 07:02:27;;;;;;;8.38;2.72;;;;;;;6.65;94.27;101957.47;4992260;28;20539;-53
2021/11/05 07:04:55;;;;;;;8.57;2.83;;;;;;;6.64;93.86;101951.25;4991453;28;20150;-56
2021/11/05 07:07:23;;;;;;;7.72;3.20;;;;;;;6.65;94.24;101958.31;4993058;28;20108;-55
2021/11/05 07:09:50;;;;;;;6.03;2.53;;;;;;;6.68;94.08;101967.88;4991745;28;20790;-52
2021/11/05 07:12:18;;;;;;;6.18;2.70;;;;;;;6.68;93.91;101966.00;4993328;28;20051;-53
2021/11/05 07:14:46;;;;;;;6.43;2.95;;;;;;;6.67;93.87;101972.47;4993080;28;20544;-57
2021/11/05 07:17:13;;;;;;;7.45;3.13;;;;;;;6.67;94.33;101977.06;4992434;28;20051;-53
2021/11/05 07:19:41;;;;;;;10.15;3.45;;;;;;;6.66;94.39;101987.03;4991960;28;20050;-53
2021/11/05 07:22:08;;;;;;;8.60;3.30;;;;;;;6.65;94.04;101993.50;4991122;28;20489;-53
2021/11/05 07:24:37;;;;;;;7.53;3.10;;;;;;;6.60;94.02;101998.75;4992183;28;20050;-52
2021/11/05 07:27:05;;;;;;;8.07;2.80;;;;;;;6.60;94.93;101996.03;4993902;28;20109;-54
2021/11/05 07:29:33;;;;;;;6.20;2.80;;;;;;;6.59;94.62;101994.34;4995252;28;20073;-52
2021/11/05 07:32:08;;;;;;;7.13;3.20;;;;;;;6.58;94.52;102003.53;4994770;28;20046;-52
2021/11/05 07:34:36;;;;;;;7.93;3.38;;;;;;;6.63;95.13;102009.13;4995257;28;20039;-52
2021/11/05 07:37:09;;;;;;;5.75;2.78;;;;;;;6.65;94.89;102001.63;4994713;28;20066;-54
2021/11/05 07:39:36;;;;;;;7.70;3.20;;;;;;;6.67;94.08;102010.38;4995169;28;20049;-53
2021/11/05 07:42:04;;;;;;;8.77;2.97;;;;;;;6.69;94.65;102018.31;4994605;28;20054;-51
2021/11/05 07:44:32;;;;;;;6.55;2.70;;;;;;;6.69;94.65;102019.13;4994490;28;20501;-52
2021/11/05 07:46:59;;;;;;;7.88;3.35;;;;;;;6.71;94.46;102022.47;4994636;28;20100;-52
2021/11/05 07:49:27;;;;;;;8.40;3.20;;;;;;;6.72;94.63;102021.41;4993941;28;20054;-52
2021/11/05 07:51:55;;;;;;;7.47;3.58;;;;;;;6.73;95.03;102031.19;4994626;28;20097;-51
2021/11/05 07:54:23;;;;;;;6.95;3.38;;;;;;;6.76;94.53;102033.50;4994486;28;20035;-53
2021/11/05 07:56:51;;;;;;;6.65;3.00;;;;;;;6.79;94.59;102035.75;4994674;28;20531;-50
2021/11/05 07:59:19;;;;;;;5.93;3.15;;;;;;;6.81;94.99;102039.09;4995441;28;20046;-54
2021/11/05 08:01:47;;;;;;;7.80;3.25;;;;;;;6.83;95.02;102042.44;4994644;28;20042;-55
2021/11/05 08:04:15;;;;;;;8.48;3.28;;;;;;;6.86;95.01;102045.75;4994111;28;20079;-51
2021/11/05 08:06:43;;;;;;;8.82;3.22;;;;;;;6.88;95.23;102051.78;4993798;28;20042;-54
2021/11/05 08:09:10;;;;;;;6.90;3.25;;;;;;;6.91;95.43;102048.66;4993916;28;20042;-53
2021/11/05 08:11:38;;;;;;;10.50;4.10;;;;;;;6.92;95.06;102051.13;4994402;28;20097;-53
2021/11/05 08:14:06;;;;;;;6.97;3.40;;;;;;;6.92;94.68;102058.44;4994096;28;20065;-53
2021/11/05 08:16:34;;;;;;;8.05;3.47;;;;;;;6.91;95.48;102063.03;4994079;28;20062;-51
2021/11/05 08:19:02;;;;;;;6.50;3.38;;;;;;;6.93;95.67;102062.84;4993907;28;20552;-51
2021/11/05 08:21:30;;;;;;;8.50;3.28;;;;;;;6.94;95.39;102059.88;4993924;28;20445;-52
2021/11/05 08:23:59;;;;;;;9.65;3.50;;;;;;;6.94;95.90;102070.72;4983772;28;20038;-52
2021/11/05 08:26:28;;;;;;;9.43;3.63;;;;;;;6.94;95.74;102072.63;4992852;28;20054;-53
2021/11/05 08:28:57;;;;;;;8.50;3.40;;;;;;;6.95;96.00;102074.25;4993924;28;20463;-52
2021/11/05 08:31:25;;;;;;;7.82;3.05;;;;;;;6.96;96.51;102079.47;4993634;28;20042;-52
2021/11/05 08:33:54;;;;;;;9.40;3.78;;;;;;;6.99;96.46;102089.06;4993420;28;20042;-51
2021/11/05 08:36:25;;;;;;;7.40;3.20;;;;;;;7.02;96.78;102091.34;4993916;28;20121;-51
2021/11/05 08:38:53;;;;;;;10.35;3.67;;;;;;;7.04;97.52;102098.19;4993714;28;20046;-53
2021/11/05 08:41:21;;;;;;;7.22;3.17;;;;;;;7.07;97.07;102099.69;4993929;28;20039;-52
2021/11/05 08:43:52;;;;;;;7.57;2.92;;;;;;;7.10;97.69;102101.97;4993601;28;20497;-50
2021/11/05 08:46:26;;;;;;;7.70;3.33;;;;;;;7.12;98.04;102102.59;4993074;28;20077;-52
2021/11/05 08:49:11;;;;;;;18.25;4.18;;;;;;;7.19;98.14;102106.09;4992989;28;20054;-52
2021/11/05 08:51:44;;;;;;;11.32;3.50;;;;;;;7.24;98.65;102109.00;4992923;28;20528;-52
2021/11/05 08:54:13;;;;;;;7.65;3.20;;;;;;;7.25;98.60;102112.53;4993330;28;20053;-52
2021/11/05 08:56:41;;;;;;;6.28;3.10;;;;;;;7.29;98.70;102121.06;4993542;28;20043;-53
2021/11/05 08:59:15;;;;;;;9.18;3.13;;;;;;;7.30;98.91;102123.56;4993530;28;20039;-53
2021/11/05 09:01:43;;;;;;;6.07;3.10;;;;;;;7.31;98.74;102118.97;4993333;28;20133;-48
2021/11/05 09:04:12;;;;;;;8.30;3.22;;;;;;;7.34;99.04;102122.09;4993229;28;20046;-49
2021/11/05 09:06:42;;;;;;;7.15;2.80;;;;;;;7.36;99.25;102124.56;4992470;28;20045;-52
2021/11/05 09:09:10;;;;;;;10.13;3.38;;;;;;;7.37;99.99;102128.97;4989854;28;20421;-48
2021/11/05 09:11:37;;;;;;;7.47;2.85;;;;;;;7.35;100.00;102128.34;4992331;28;20046;-49
2021/11/05 09:14:06;;;;;;;13.80;3.30;;;;;;;7.35;100.00;102136.47;4993473;28;20082;-50
2021/11/05 09:16:34;;;;;;;6.40;2.80;;;;;;;7.35;100.00;102137.31;4992986;28;20077;-48
2021/11/05 09:19:02;;;;;;;8.10;3.00;;;;;;;7.36;100.00;102135.44;4992331;28;20113;-51
2021/11/05 09:21:32;;;;;;;8.98;3.55;;;;;;;7.41;100.00;102135.66;4993132;28;20070;-49
2021/11/05 09:24:04;;;;;;;9.13;3.53;;;;;;;7.47;100.00;102138.31;4992619;28;20092;-52
2021/11/05 09:26:32;;;;;;;8.70;2.97;;;;;;;7.51;100.00;102141.44;4992175;28;20042;-48
2021/11/05 09:29:05;;;;;;;10.90;2.90;;;;;;;7.54;100.00;102140.16;4992591;28;20058;-50
2021/11/05 09:31:33;;;;;;;9.63;3.30;;;;;;;7.56;100.00;102149.75;4991281;28;20502;-52
2021/11/05 09:34:00;;;;;;;13.75;3.42;;;;;;;7.60;100.00;102151.00;4992411;28;20038;-51
2021/11/05 09:36:28;;;;;;;13.07;4.00;;;;;;;7.62;100.00;102157.00;4993157;28;20125;-50
2021/11/05 09:38:56;;;;;;;4.95;2.67;;;;;;;7.63;100.00;102155.97;4992647;28;20413;-52
2021/11/05 09:41:24;;;;;;;9.23;3.35;;;;;;;7.64;100.00;102163.06;4992565;28;20045;-52
2021/11/05 09:43:51;;;;;;;7.85;2.70;;;;;;;7.64;100.00;102160.34;5007436;28;20061;-48
2021/11/05 09:46:19;;;;;;;6.93;2.85;;;;;;;7.66;100.00;102174.53;5006858;28;20043;-52
2021/11/05 09:48:48;;;;;;;9.45;3.10;;;;;;;7.67;100.00;102173.50;4992758;28;20396;-54
2021/11/05 09:51:16;;;;;;;8.02;3.33;;;;;;;7.72;100.00;102174.72;4990381;28;20405;-52
2021/11/05 09:53:43;;;;;;;10.45;3.60;;;;;;;7.76;100.00;102175.97;4992356;28;20121;-52
2021/11/05 09:56:14;;;;;;;7.97;2.92;;;;;;;7.79;100.00;102179.09;4992409;28;20058;-50
2021/11/05 09:58:42;;;;;;;8.70;3.13;;;;;;;7.84;100.00;102186.56;4992668;28;20046;-48
2021/11/05 10:01:11;;;;;;;10.02;3.17;;;;;;;7.88;100.00;102190.50;4991847;28;20042;-51
2021/11/05 10:03:39;;;;;;;9.02;2.95;;;;;;;7.92;100.00;102191.75;4993464;28;20386;-54
2021/11/05 10:06:08;;;;;;;9.20;3.47;;;;;;;7.96;100.00;102198.41;4996859;28;20073;-52
2021/11/05 10:08:36;;;;;;;10.20;2.90;;;;;;;8.01;100.00;102200.44;4996651;28;20497;-52
2021/11/05 10:11:31;;;;;;;10.40;3.22;;;;;;;8.07;100.00;102208.56;4996327;28;20042;-53
2021/11/05 10:14:02;;;;;;;9.67;2.73;;;;;;;8.17;100.00;102212.69;4987393;28;20501;-50
2021/11/05 10:16:31;;;;;;;8.02;2.67;;;;;;;8.22;100.00;102210.97;4995837;28;20289;-52
2021/11/05 10:19:04;;;;;;;10.70;2.95;;;;;;;8.28;100.00;102218.28;4995769;28;20042;-51
2021/11/05 10:21:42;;;;;;;9.10;3.08;;;;;;;8.35;100.00;102215.53;4995870;28;20070;-52
2021/11/05 10:24:12;;;;;;;9.27;3.00;;;;;;;8.41;100.00;102225.53;4996765;28;20158;-52
2021/11/05 10:26:40;;;;;;;8.20;2.90;;;;;;;8.47;100.00;102224.66;4996538;28;20041;-56
2021/11/05 10:29:24;;;;;;;10.20;3.38;;;;;;;8.55;100.00;102228.16;4995709;28;20038;-55
2021/11/05 10:32:01;;;;;;;12.48;3.55;;;;;;;8.55;100.00;102222.72;4995569;28;20053;-54
2021/11/05 10:34:44;;;;;;;7.60;2.65;;;;;;;8.58;100.00;102230.44;4996314;28;20125;-54
2021/11/05 10:37:12;;;;;;;13.10;3.35;;;;;;;8.61;100.00;102230.84;4997379;28;20412;-52
2021/11/05 10:39:53;;;;;;;11.38;2.95;;;;;;;8.63;100.00;102231.44;4996234;28;20065;-54
2021/11/05 10:42:39;;;;;;;10.32;2.80;;;;;;;8.66;100.00;102236.44;4994008;28;20156;-54
2021/11/05 10:45:20;;;;;;;9.35;3.05;;;;;;;8.71;100.00;102235.78;4996187;28;20049;-52
2021/11/05 10:47:55;;;;;;;9.98;3.25;;;;;;;8.70;100.00;102229.50;4995773;28;20125;-51
2021/11/05 10:50:32;;;;;;;9.40;3.08;;;;;;;8.72;100.00;102237.44;4994995;28;20080;-49
2021/11/05 10:53:08;;;;;;;10.40;3.42;;;;;;;8.76;100.00;102238.66;4986784;28;20559;-49
2021/11/05 10:55:41;;;;;;;9.27;2.85;;;;;;;8.81;100.00;102240.72;4996130;28;20049;-52
2021/11/05 10:58:20;;;;;;;10.10;3.08;;;;;;;8.86;100.00;102244.44;4989192;28;20034;-54
2021/11/05 11:00:50;;;;;;;13.55;4.00;;;;;;;8.92;100.00;102240.00;4989627;28;20058;-51
2021/11/05 11:03:25;;;;;;;9.75;2.80;;;;;;;8.98;100.00;102241.00;4995218;28;20038;-51
2021/11/05 11:05:53;;;;;;;10.38;3.20;;;;;;;9.00;100.00;102244.34;4995843;28;20039;-52
2021/11/05 11:08:27;;;;;;;10.93;3.40;;;;;;;8.99;100.00;102250.81;4983434;28;20065;-52
2021/11/05 11:10:57;;;;;;;8.05;2.70;;;;;;;8.98;100.00;102254.59;4995218;28;20112;-51
2021/11/05 11:13:36;;;;;;;11.05;3.20;;;;;;;9.01;100.00;102259.59;4993533;28;20398;-53
2021/11/05 11:16:07;;;;;;;10.60;3.35;;;;;;;9.05;100.00;102255.38;4994850;28;20129;-53
2021/11/05 11:18:55;;;;;;;17.92;3.85;;;;;;;9.08;100.00;102255.75;4994033;28;20061;-52
2021/11/05 11:21:29;;;;;;;8.98;3.20;;;;;;;9.11;100.00;102257.19;4994744;28;20137;-51
2021/11/05 11:23:57;;;;;;;8.55;2.97;;;;;;;9.14;100.00;102256.75;4995171;28;20460;-52
2021/11/05 11:26:27;;;;;;;12.63;3.28;;;;;;;9.14;100.00;102260.31;4994484;28;20042;-52
2021/11/05 11:28:56;;;;;;;10.18;3.40;;;;;;;9.13;100.00;102255.06;4992806;28;20042;-53
2021/11/05 11:31:24;;;;;;;12.98;3.38;;;;;;;9.14;100.00;102259.47;4994935;28;20041;-52
2021/11/05 11:33:52;;;;;;;11.40;3.72;;;;;;;9.17;100.00;102265.28;4994538;28;20042;-53
2021/11/05 11:36:21;;;;;;;11.50;3.17;;;;;;;9.20;100.00;102265.91;4995440;28;20046;-52
2021/11/05 11:38:53;;;;;;;8.43;3.00;;;;;;;9.23;100.00;102266.28;4994798;28;20043;-53